Time;durP1;ratioP1;P1;durP2;ratioP2;P2;SDS_P1;SDS_P2;PMS_P1;PMS_P2;Temp;Humidity;BMP_temperature;BMP_pressure;BME280_temperature;BME280_humidity;BME280_pressure;Samples;Min_cycle;Max_cycle;Signal;HPM_P1;HPM_P2
2023/12/21 00:00:13;;;;;;;;;5.25;5.25;;;;;-143.90;100.00;75463.72;4901153;28;102729;-72
2023/12/21 00:02:39;;;;;;;;;10.00;6.00;;;;;-143.90;100.00;75457.53;4890793;28;103290;-72
2023/12/21 00:05:06;;;;;;;;;6.75;6.00;;;;;-143.90;100.00;75451.31;4891593;28;102589;-72
2023/12/21 00:07:33;;;;;;;;;7.00;6.25;;;;;-143.90;100.00;75453.41;4897611;28;103995;-72
2023/12/21 00:10:00;;;;;;;;;5.25;5.00;;;;;-143.90;100.00;75441.00;4899280;28;102399;-71
2023/12/21 00:12:26;;;;;;;;;7.00;5.00;;;;;-143.90;100.00;75445.13;4890043;28;104285;-73
2023/12/21 00:14:53;;;;;;;;;6.25;6.00;;;;;-143.90;100.00;75441.00;4900095;28;102340;-72
2023/12/21 00:17:20;;;;;;;;;7.00;6.75;;;;;-143.90;100.00;75434.78;4899454;28;104030;-73
2023/12/21 00:19:46;;;;;;;;;9.00;6.00;;;;;-143.90;100.00;75432.72;4877958;28;102008;-73
2023/12/21 00:22:13;;;;;;;;;9.00;6.75;;;;;-143.90;100.00;75428.59;4899482;28;103670;-72
2023/12/21 00:24:40;;;;;;;;;7.00;6.00;;;;;-143.90;100.00;75428.59;4890473;28;102661;-72
2023/12/21 00:27:06;;;;;;;;;5.75;5.00;;;;;-143.90;100.00;75424.44;4898730;28;104008;-72
2023/12/21 00:29:33;;;;;;;;;10.00;8.00;;;;;-143.90;100.00;75428.59;4895256;28;102442;-72
2023/12/21 00:31:59;;;;;;;;;7.00;6.75;;;;;-143.90;100.00;75412.03;4899050;28;104007;-73
2023/12/21 00:34:26;;;;;;;;;7.00;6.00;;;;;-143.90;100.00;75409.97;4892768;28;101826;-71
2023/12/21 00:36:53;;;;;;;;;7.25;6.00;;;;;-143.90;100.00;75409.97;4898453;28;104180;-72
2023/12/21 00:39:19;;;;;;;;;5.75;5.00;;;;;-143.90;100.00;75412.03;4899437;28;102110;-73
2023/12/21 00:41:46;;;;;;;;;6.50;5.00;;;;;-143.90;100.00;75403.78;4897001;28;102639;-73
2023/12/21 00:44:13;;;;;;;;;6.00;3.00;;;;;-143.90;100.00;75395.50;4897122;28;102663;-71
2023/12/21 00:46:39;;;;;;;;;6.50;6.25;;;;;-143.90;100.00;75407.91;4904426;28;104097;-71
2023/12/21 00:49:07;;;;;;;;;6.25;6.00;;;;;-143.90;100.00;75414.13;4899897;28;101930;-72
2023/12/21 00:51:33;;;;;;;;;4.50;3.00;;;;;-143.90;100.00;75409.97;4898838;28;102010;-72
2023/12/21 00:54:00;;;;;;;;;7.50;5.50;;;;;-143.90;100.00;75395.50;4899771;28;102623;-72
2023/12/21 00:56:27;;;;;;;;;6.50;6.25;;;;;-143.90;100.00;75403.78;4893634;28;104304;-73
2023/12/21 00:58:53;;;;;;;;;9.00;8.00;;;;;-143.90;100.00;75395.50;4900767;28;104208;-73
2023/12/21 01:01:20;;;;;;;;;8.00;7.00;;;;;-143.90;100.00;75407.91;4903675;28;104186;-73
2023/12/21 01:03:49;;;;;;;;;11.25;8.00;;;;;-143.90;100.00;75403.78;4900133;28;102811;-72
2023/12/21 01:06:16;;;;;;;;;9.75;7.00;;;;;-143.90;100.00;75405.84;4900286;28;104171;-73
2023/12/21 01:08:43;;;;;;;;;11.00;8.00;;;;;-143.90;100.00;75407.91;4891078;28;102469;-72
2023/12/21 01:11:10;;;;;;;;;7.50;7.50;;;;;-143.90;100.00;75409.97;4904480;28;102477;-72
2023/12/21 01:13:37;;;;;;;;;7.00;7.00;;;;;-143.90;100.00;75403.78;4902603;28;102073;-72
2023/12/21 01:16:04;;;;;;;;;8.00;6.75;;;;;-143.90;100.00;75405.84;4903105;28;104136;-72
2023/12/21 01:18:31;;;;;;;;;10.50;9.00;;;;;-143.90;100.00;75409.97;4879044;28;102912;-73
2023/12/21 01:20:58;;;;;;;;;10.00;10.00;;;;;-143.90;100.00;75412.03;4898729;28;102345;-74
2023/12/21 01:23:25;;;;;;;;;10.00;7.25;;;;;-143.90;100.00;75399.63;4904070;28;104410;-72
2023/12/21 01:25:52;;;;;;;;;10.50;9.00;;;;;-143.90;100.00;75395.50;4894818;28;104101;-72
2023/12/21 01:28:19;;;;;;;;;6.00;6.00;;;;;-143.90;100.00;75397.56;4877056;28;102527;-73
2023/12/21 01:30:46;;;;;;;;;7.00;7.00;;;;;-143.90;100.00;75385.16;4891499;28;102043;-72
2023/12/21 01:33:12;;;;;;;;;7.00;6.00;;;;;-143.90;100.00;75387.22;4900145;28;102561;-73
2023/12/21 01:35:39;;;;;;;;;7.00;7.00;;;;;-143.90;100.00;75378.97;4864872;28;104743;-73
2023/12/21 01:38:06;;;;;;;;;5.75;5.75;;;;;-143.90;100.00;75381.03;4897217;28;103519;-73
2023/12/21 01:40:32;;;;;;;;;6.25;6.25;;;;;-143.90;100.00;75389.31;4882383;28;102758;-72
2023/12/21 01:42:59;;;;;;;;;6.00;5.00;;;;;-143.90;100.00;75385.16;4891065;28;102750;-72
2023/12/21 01:45:26;;;;;;;;;6.00;6.00;;;;;-143.90;100.00;75389.31;4897684;28;104337;-72
2023/12/21 01:47:54;;;;;;;;;6.75;6.25;;;;;-143.90;100.00;75381.03;4899119;28;103124;-72
2023/12/21 01:50:21;;;;;;;;;5.75;5.25;;;;;-143.90;100.00;75381.03;4898296;28;101974;-73
2023/12/21 01:52:48;;;;;;;;;4.50;3.00;;;;;-143.90;100.00;75374.84;4889842;28;105114;-73
2023/12/21 01:55:17;;;;;;;;;5.75;5.75;;;;;-143.90;100.00;75383.09;4900149;28;105658;-72
2023/12/21 01:57:44;;;;;;;;;4.00;1.75;;;;;-143.90;100.00;75378.97;4893396;28;103001;-71
2023/12/21 02:00:12;;;;;;;;;7.00;6.25;;;;;-143.90;100.00;75366.56;4895975;28;102061;-72
2023/12/21 02:02:39;;;;;;;;;6.25;6.00;;;;;-143.90;100.00;75372.75;4883891;28;103544;-72
2023/12/21 02:05:08;;;;;;;;;3.50;3.50;;;;;-143.90;100.00;75360.34;4895286;28;104183;-73
2023/12/21 02:07:35;;;;;;;;;7.00;5.00;;;;;-143.90;100.00;75343.81;4900208;28;102060;-73
2023/12/21 02:10:01;;;;;;;;;4.00;4.00;;;;;-143.90;100.00;75345.88;4898920;28;103715;-73
2023/12/21 02:12:28;;;;;;;;;4.50;4.50;;;;;-143.90;100.00;75341.75;4895764;28;102693;-71
2023/12/21 02:14:55;;;;;;;;;7.00;5.00;;;;;-143.90;100.00;75341.75;4892829;28;111487;-72
2023/12/21 02:17:23;;;;;;;;;6.75;5.00;;;;;-143.90;100.00;75337.63;4898291;28;102402;-74
2023/12/21 02:19:50;;;;;;;;;5.00;5.00;;;;;-143.90;100.00;75337.63;4895611;28;105445;-72
2023/12/21 02:22:19;;;;;;;;;5.50;5.00;;;;;-143.90;100.00;75329.34;4884176;28;103034;-72
2023/12/21 02:24:46;;;;;;;;;2.75;2.75;;;;;-143.90;100.00;75327.28;4884058;28;104070;-73
2023/12/21 02:27:13;;;;;;;;;2.50;2.00;;;;;-143.90;100.00;75319.00;4900031;28;102831;-73
2023/12/21 02:29:40;;;;;;;;;6.00;5.00;;;;;-143.90;100.00;75319.00;4896637;28;102176;-73
2023/12/21 02:32:06;;;;;;;;;4.50;2.75;;;;;-143.90;100.00;75316.94;4896804;28;102475;-73
2023/12/21 02:34:33;;;;;;;;;3.50;3.00;;;;;-143.90;100.00;75319.00;4889387;28;104685;-73
2023/12/21 02:36:59;;;;;;;;;4.75;3.00;;;;;-143.90;100.00;75312.81;4895464;28;103725;-72
2023/12/21 02:39:26;;;;;;;;;3.00;2.50;;;;;-143.90;100.00;75302.47;4898518;28;102446;-72
2023/12/21 02:41:54;;;;;;;;;5.00;5.00;;;;;-143.90;100.00;75308.66;4882884;28;102605;-72
2023/12/21 02:44:20;;;;;;;;;3.00;3.00;;;;;-143.90;100.00;75304.53;4894931;28;103825;-72
2023/12/21 02:46:47;;;;;;;;;5.00;5.00;;;;;-143.90;100.00;75300.41;4884930;28;104826;-72
2023/12/21 02:49:14;;;;;;;;;5.50;5.00;;;;;-143.90;100.00;75296.25;4897334;28;102560;-73
2023/12/21 02:51:40;;;;;;;;;4.00;3.00;;;;;-143.90;100.00;75285.94;4899114;28;101995;-72
2023/12/21 02:54:07;;;;;;;;;4.00;4.00;;;;;-143.90;100.00;75283.84;4899571;28;104079;-72
2023/12/21 02:56:34;;;;;;;;;5.00;4.00;;;;;-143.90;100.00;75279.72;4897333;28;102750;-72
2023/12/21 02:59:00;;;;;;;;;3.50;3.50;;;;;-143.90;100.00;75273.53;4898079;28;102370;-73
2023/12/21 03:01:27;;;;;;;;;3.50;3.00;;;;;-143.90;100.00;75275.59;4906494;28;102508;-72
2023/12/21 03:03:54;;;;;;;;;5.00;3.00;;;;;-143.90;100.00;75269.38;4900138;28;104015;-72
2023/12/21 03:06:21;;;;;;;;;6.00;5.00;;;;;-143.90;100.00;75259.06;4898221;28;101967;-73
2023/12/21 03:08:48;;;;;;;;;7.00;6.00;;;;;-143.90;100.00;75252.84;4890330;28;102683;-72
2023/12/21 03:11:14;;;;;;;;;5.00;3.00;;;;;-143.90;100.00;75250.78;4897670;28;102823;-72
2023/12/21 03:13:41;;;;;;;;;5.50;3.50;;;;;-143.90;100.00;75248.72;4899414;28;104967;-73
2023/12/21 03:16:09;;;;;;;;;5.00;3.00;;;;;-143.90;100.00;75250.78;4882636;28;102102;-73
2023/12/21 03:18:36;;;;;;;;;3.00;2.00;;;;;-143.90;100.00;75250.78;4891902;28;103552;-72
2023/12/21 03:21:04;;;;;;;;;3.50;2.00;;;;;-143.90;100.00;75240.44;4899999;28;102670;-73
2023/12/21 03:23:34;;;;;;;;;2.00;2.00;;;;;-143.90;100.00;75234.25;4903408;28;104270;-71
2023/12/21 03:26:00;;;;;;;;;2.50;2.00;;;;;-143.90;100.00;75232.19;4900798;28;103195;-72
2023/12/21 03:28:27;;;;;;;;;2.25;2.00;;;;;-143.90;100.00;75230.09;4899820;28;103251;-72
2023/12/21 03:30:54;;;;;;;;;5.00;5.00;;;;;-143.90;100.00;75230.09;4896046;28;103726;-72
2023/12/21 03:33:21;;;;;;;;;6.00;6.00;;;;;-143.90;100.00;75230.09;4899344;28;104124;-72
2023/12/21 03:35:48;;;;;;;;;6.00;3.50;;;;;-143.90;100.00;75217.69;4898141;28;102476;-72
2023/12/21 03:38:15;;;;;;;;;5.00;4.50;;;;;-143.90;100.00;75219.78;4901566;28;103147;-72
2023/12/21 03:40:41;;;;;;;;;5.00;2.75;;;;;-143.90;100.00;75223.91;4890273;28;104093;-73
2023/12/21 03:43:08;;;;;;;;;6.00;3.00;;;;;-143.90;100.00;75221.84;4901602;28;104045;-72
2023/12/21 03:45:39;;;;;;;;;3.00;2.25;;;;;-143.90;100.00;75209.44;4901263;28;107350;-73
2023/12/21 03:48:10;;;;;;;;;4.25;3.25;;;;;-143.90;100.00;75207.38;4900382;28;102397;-72
2023/12/21 03:50:37;;;;;;;;;2.50;2.50;;;;;-143.90;100.00;75207.38;4895287;28;104521;-72
2023/12/21 03:53:06;;;;;;;;;3.50;3.00;;;;;-143.90;100.00;75197.03;4892827;28;104074;-73
2023/12/21 03:55:32;;;;;;;;;5.00;5.00;;;;;-143.90;100.00;75199.09;4898540;28;104390;-72
2023/12/21 03:57:59;;;;;;;;;3.00;3.00;;;;;-143.90;100.00;75199.09;4899288;28;103614;-72
2023/12/21 04:00:26;;;;;;;;;4.00;3.00;;;;;-143.90;100.00;75190.81;4900107;28;104211;-73
2023/12/21 04:02:52;;;;;;;;;4.00;3.00;;;;;-143.90;100.00;75192.91;4892725;28;104009;-72
2023/12/21 04:05:19;;;;;;;;;5.50;3.50;;;;;-143.90;100.00;75197.03;4900937;28;102797;-72
2023/12/21 04:07:46;;;;;;;;;3.00;2.50;;;;;-143.90;100.00;75192.91;4902961;28;103531;-73
2023/12/21 04:10:12;;;;;;;;;3.00;2.00;;;;;-143.90;100.00;75192.91;4899805;28;102357;-73
2023/12/21 04:12:39;;;;;;;;;3.50;3.50;;;;;-143.90;100.00;75188.75;4890396;28;104623;-73
2023/12/21 04:15:06;;;;;;;;;2.25;2.25;;;;;-143.90;100.00;75188.75;4900653;28;102618;-74
2023/12/21 04:17:32;;;;;;;;;2.25;2.25;;;;;-143.90;100.00;75180.50;4900448;28;102920;-73
2023/12/21 04:19:59;;;;;;;;;3.00;3.00;;;;;-143.90;100.00;75176.34;4901686;28;102362;-73
2023/12/21 04:22:26;;;;;;;;;0.00;0.00;;;;;-143.90;100.00;75170.16;4900658;28;105658;-72
2023/12/21 04:24:53;;;;;;;;;2.75;2.75;;;;;-143.90;100.00;75170.16;4896977;28;102027;-72
2023/12/21 04:27:20;;;;;;;;;2.75;2.75;;;;;-143.90;100.00;75172.22;4899572;28;103063;-72
2023/12/21 04:29:46;;;;;;;;;2.00;2.00;;;;;-143.90;100.00;75151.53;4902672;28;104588;-71
2023/12/21 04:32:13;;;;;;;;;3.00;3.00;;;;;-143.90;100.00;75143.28;4888362;28;104138;-72
2023/12/21 04:34:39;;;;;;;;;1.00;1.00;;;;;-143.90;100.00;75135.00;4895970;28;102647;-73
2023/12/21 04:37:06;;;;;;;;;2.50;2.00;;;;;-143.90;100.00;75130.88;4902521;28;103462;-73
2023/12/21 04:39:32;;;;;;;;;1.00;0.50;;;;;-143.90;100.00;75124.66;4906641;28;103114;-71
2023/12/21 04:42:00;;;;;;;;;3.00;3.00;;;;;-143.90;100.00;75118.47;4901129;28;105926;-71
2023/12/21 04:44:26;;;;;;;;;17.00;14.75;;;;;-143.90;100.00;75110.19;4882959;28;102129;-72
2023/12/21 04:46:56;;;;;;;;;13.00;13.00;;;;;-143.90;100.00;75099.88;4891089;28;102326;-71
2023/12/21 04:49:24;;;;;;;;;10.00;6.50;;;;;-143.90;100.00;75093.66;4900493;28;102050;-72
2023/12/21 04:51:51;;;;;;;;;5.00;3.00;;;;;-143.90;100.00;75081.25;4906329;28;103992;-73
2023/12/21 04:54:17;;;;;;;;;2.25;2.25;;;;;-143.90;100.00;75077.13;4888257;28;102677;-72
2023/12/21 04:56:44;;;;;;;;;14.00;9.50;;;;;-143.90;100.00;75068.84;4879126;28;102402;-72
2023/12/21 04:59:11;;;;;;;;;84.00;61.33;;;;;-143.90;100.00;75060.59;4904485;28;102011;-72
2023/12/21 05:01:37;;;;;;;;;71.00;49.33;;;;;-143.90;100.00;75056.44;4897123;28;104930;-72
2023/12/21 05:04:06;;;;;;;;;127.00;90.75;;;;;-143.90;100.00;75048.19;4904426;28;104376;-73
2023/12/21 05:06:33;;;;;;;;;172.50;112.50;;;;;-143.90;100.00;75039.91;4897012;28;101971;-72
2023/12/21 05:08:59;;;;;;;;;102.50;76.75;;;;;-143.90;100.00;75023.38;4883255;28;102557;-72
2023/12/21 05:11:28;;;;;;;;;35.50;28.50;;;;;-143.90;100.00;75019.22;4902227;28;103969;-74
2023/12/21 05:13:55;;;;;;;;;12.00;10.00;;;;;-143.90;100.00;75017.16;4899870;28;102662;-73
2023/12/21 05:16:22;;;;;;;;;19.75;16.75;;;;;-143.90;100.00;75015.09;4895631;28;102463;-73
2023/12/21 05:18:50;;;;;;;;;41.00;26.75;;;;;-143.90;100.00;75013.03;4890607;28;104120;-71
2023/12/21 05:21:17;;;;;;;;;41.50;26.00;;;;;-143.90;100.00;75008.91;4902419;28;103826;-72
2023/12/21 05:23:43;;;;;;;;;29.50;25.00;;;;;-143.90;100.00;75015.09;4893279;28;103653;-73
2023/12/21 05:26:14;;;;;;;;;27.00;17.75;;;;;-143.90;100.00;75023.38;4896327;28;105027;-73
2023/12/21 05:28:42;;;;;;;;;37.00;23.00;;;;;-143.90;100.00;75019.22;4892192;28;103125;-74
2023/12/21 05:31:11;;;;;;;;;43.75;32.75;;;;;-143.90;100.00;75019.22;4895283;28;104995;-74
2023/12/21 05:33:38;;;;;;;;;20.00;15.75;;;;;-143.90;100.00;75023.38;4887755;28;102364;-73
2023/12/21 05:36:06;;;;;;;;;26.00;22.25;;;;;-143.90;100.00;75027.50;4898270;28;102965;-72
2023/12/21 05:38:33;;;;;;;;;57.33;40.67;;;;;-143.90;100.00;75023.38;4895109;28;102682;-73
2023/12/21 05:41:03;;;;;;;;;31.25;23.50;;;;;-143.90;100.00;75031.63;4900653;28;110405;-73
2023/12/21 05:43:29;;;;;;;;;20.50;17.25;;;;;-143.90;100.00;75035.78;4899988;28;102439;-75
2023/12/21 05:45:56;;;;;;;;;53.00;40.33;;;;;-143.90;100.00;75044.03;4900781;28;101905;-76
2023/12/21 05:48:23;;;;;;;;;43.67;32.67;;;;;-143.90;100.00;75037.84;4902368;28;102043;-74
2023/12/21 05:50:50;;;;;;;;;16.25;15.00;;;;;-143.90;100.00;75044.03;4885608;28;103949;-75
2023/12/21 05:53:16;;;;;;;;;9.50;9.00;;;;;-143.90;100.00;75044.03;4900360;28;102486;-74
2023/12/21 05:55:43;;;;;;;;;11.50;10.50;;;;;-143.90;100.00;75031.63;4901482;28;103123;-74
2023/12/21 05:58:10;;;;;;;;;5.00;5.00;;;;;-143.90;100.00;75035.78;4895159;28;102361;-74
2023/12/21 06:00:37;;;;;;;;;7.00;6.25;;;;;-143.90;100.00;75037.84;4893760;28;104173;-73
2023/12/21 06:03:04;;;;;;;;;5.25;4.50;;;;;-143.90;100.00;75031.63;4898830;28;104841;-73
2023/12/21 06:05:31;;;;;;;;;6.00;5.50;;;;;-143.90;100.00;75027.50;4903496;28;102617;-74
2023/12/21 06:07:58;;;;;;;;;5.00;4.50;;;;;-143.90;100.00;75017.16;4907878;28;102792;-73
2023/12/21 06:10:25;;;;;;;;;6.00;4.50;;;;;-143.90;100.00;75019.22;4903430;28;104075;-74
2023/12/21 06:12:51;;;;;;;;;6.25;6.00;;;;;-143.90;100.00;75031.63;4892092;28;106626;-73
2023/12/21 06:15:18;;;;;;;;;3.50;3.50;;;;;-143.90;100.00;75023.38;4906288;28;102589;-75
2023/12/21 06:17:45;;;;;;;;;6.75;5.00;;;;;-143.90;100.00;75010.97;4901661;28;102027;-73
2023/12/21 06:20:11;;;;;;;;;2.50;2.50;;;;;-143.90;100.00;75010.97;4905025;28;104135;-72
2023/12/21 06:22:38;;;;;;;;;4.50;2.25;;;;;-143.90;100.00;75019.22;4883827;28;102589;-74
2023/12/21 06:25:05;;;;;;;;;2.50;2.00;;;;;-143.90;100.00;75015.09;4903149;28;102542;-73
2023/12/21 06:27:32;;;;;;;;;7.50;6.50;;;;;-143.90;100.00;75035.78;4903824;28;102805;-74
2023/12/21 06:29:58;;;;;;;;;11.00;10.00;;;;;-143.90;100.00;75025.44;4895945;28;104111;-74
2023/12/21 06:32:25;;;;;;;;;9.00;7.50;;;;;-143.90;100.00;75031.63;4905025;28;102391;-73
2023/12/21 06:34:52;;;;;;;;;29.25;18.25;;;;;-143.90;100.00;75039.91;4896152;28;102655;-75
2023/12/21 06:37:19;;;;;;;;;12.00;9.25;;;;;-143.90;100.00;75044.03;4905643;28;101924;-73
2023/12/21 06:39:46;;;;;;;;;30.75;22.75;;;;;-143.90;100.00;75039.91;4901809;28;105077;-73
2023/12/21 06:42:12;;;;;;;;;43.67;32.67;;;;;-143.90;100.00;75035.78;4912872;28;102413;-73
2023/12/21 06:44:39;;;;;;;;;9.25;6.25;;;;;-143.90;100.00;75041.97;4814758;28;102058;-72
2023/12/21 06:47:06;;;;;;;;;14.00;10.50;;;;;-143.90;100.00;75046.09;4902590;28;102363;-73
2023/12/21 06:49:33;;;;;;;;;20.50;14.50;;;;;-143.90;100.00;75039.91;4901088;28;104145;-74
2023/12/21 06:52:00;;;;;;;;;14.75;13.50;;;;;-143.90;100.00;75046.09;4917540;28;105779;-75
2023/12/21 06:54:26;;;;;;;;;11.50;7.25;;;;;-143.90;100.00;75041.97;4902258;28;102167;-73
2023/12/21 06:56:53;;;;;;;;;11.00;8.50;;;;;-143.90;100.00;75046.09;4900716;28;102643;-72
2023/12/21 06:59:19;;;;;;;;;11.00;10.00;;;;;-143.90;100.00;75039.91;4899270;28;104174;-73
2023/12/21 07:01:46;;;;;;;;;9.00;7.75;;;;;-143.90;100.00;75050.25;4891472;28;102137;-74
2023/12/21 07:04:13;;;;;;;;;6.75;5.50;;;;;-143.90;100.00;75048.19;4901354;28;102365;-73
2023/12/21 07:06:39;;;;;;;;;15.00;11.75;;;;;-143.90;100.00;75044.03;4884975;28;102206;-74
2023/12/21 07:09:06;;;;;;;;;9.25;7.75;;;;;-143.90;100.00;75050.25;4902957;28;103759;-73
2023/12/21 07:11:33;;;;;;;;;7.00;6.25;;;;;-143.90;100.00;75052.31;4904562;28;102305;-75
2023/12/21 07:13:59;;;;;;;;;8.00;7.00;;;;;-143.90;100.00;75054.38;4906228;28;102166;-72
2023/12/21 07:16:26;;;;;;;;;11.75;9.00;;;;;-143.90;100.00;75068.84;4901732;28;102643;-76
2023/12/21 07:18:52;;;;;;;;;8.00;5.25;;;;;-143.90;100.00;75077.13;4899047;28;111842;-73
2023/12/21 07:21:19;;;;;;;;;3.00;2.75;;;;;-143.90;100.00;75081.25;4904127;28;104261;-73
2023/12/21 07:23:46;;;;;;;;;3.00;3.00;;;;;-143.90;100.00;75081.25;4905556;28;105613;-73
2023/12/21 16:24:25;;;;;;;;;7.00;6.50;;;;;-143.90;100.00;73878.25;4862186;27;1322307;-71
2023/12/21 16:26:53;;;;;;;;;7.50;6.00;;;;;-143.90;100.00;73857.56;4910106;28;102631;-72
2023/12/21 16:29:21;;;;;;;;;9.75;9.00;;;;;-143.90;100.00;73849.31;4915793;28;104267;-73
2023/12/21 16:31:49;;;;;;;;;6.00;5.75;;;;;-143.90;100.00;73836.91;4883024;28;102168;-73
2023/12/21 16:34:16;;;;;;;;;4.50;2.00;;;;;-143.90;100.00;73816.25;4888685;28;102078;-73
2023/12/21 16:36:43;;;;;;;;;2.75;2.25;;;;;-143.90;100.00;73801.78;4864784;28;103382;-73
2023/12/21 16:39:09;;;;;;;;;2.50;2.00;;;;;-143.90;100.00;73783.16;4856251;28;104326;-73
2023/12/21 16:41:37;;;;;;;;;4.50;4.50;;;;;-143.90;100.00;73791.44;4896453;28;102343;-74
2023/12/21 16:44:04;;;;;;;;;5.25;5.25;;;;;-143.90;100.00;73779.03;4893523;28;102513;-74
2023/12/21 16:46:30;;;;;;;;;3.00;3.00;;;;;-143.90;100.00;73768.69;4872244;28;103243;-73
2023/12/21 16:48:57;;;;;;;;;2.75;2.00;;;;;-143.90;100.00;73758.38;4885167;28;104161;-75
2023/12/21 16:51:24;;;;;;;;;3.00;3.00;;;;;-143.90;100.00;73756.31;4885037;28;102181;-73
2023/12/21 16:53:50;;;;;;;;;2.00;2.00;;;;;-143.90;100.00;73754.25;4869290;28;102559;-74
2023/12/21 16:56:19;;;;;;;;;2.00;2.00;;;;;-143.90;100.00;73739.78;4869388;28;103914;-72
2023/12/21 16:58:46;;;;;;;;;3.00;2.00;;;;;-143.90;100.00;73739.78;4877839;28;104208;-72
2023/12/21 17:01:13;;;;;;;;;5.00;2.50;;;;;-143.90;100.00;73729.44;4892629;28;102270;-73
2023/12/21 17:03:39;;;;;;;;;2.50;2.25;;;;;-143.90;100.00;73729.44;4868142;28;103927;-73
2023/12/21 17:06:06;;;;;;;;;3.50;2.75;;;;;-143.90;100.00;73721.16;4885241;28;102468;-72
2023/12/21 17:08:33;;;;;;;;;3.00;2.00;;;;;-143.90;100.00;73721.16;4850104;28;104017;-74
2023/12/21 17:11:00;;;;;;;;;5.00;3.50;;;;;-143.90;100.00;73712.91;4896622;28;104348;-73
2023/12/21 17:13:26;;;;;;;;;5.25;3.00;;;;;-143.90;100.00;73708.78;4891027;28;102669;-74
2023/12/21 17:15:53;;;;;;;;;6.00;4.00;;;;;-143.90;100.00;73708.78;4900986;28;102437;-73
2023/12/21 17:18:20;;;;;;;;;5.75;3.00;;;;;-143.90;100.00;73708.78;4888509;28;104083;-73
2023/12/21 17:20:46;;;;;;;;;4.50;3.00;;;;;-143.90;100.00;73696.38;4895280;28;103264;-73
2023/12/21 17:23:15;;;;;;;;;5.50;4.25;;;;;-143.90;100.00;73692.25;4905295;28;104789;-75
2023/12/21 17:25:42;;;;;;;;;2.00;2.00;;;;;-143.90;100.00;73694.31;4934023;28;102482;-72
2023/12/21 17:28:11;;;;;;;;;5.25;2.25;;;;;-143.90;100.00;73686.03;4940313;28;103895;-74
2023/12/21 17:30:38;;;;;;;;;7.00;6.00;;;;;-143.90;100.00;73669.50;4930355;28;102658;-73
2023/12/21 17:33:05;;;;;;;;;7.00;6.00;;;;;-143.90;100.00;73667.44;4933405;28;102681;-74
2023/12/21 17:35:32;;;;;;;;;7.25;7.00;;;;;-143.90;100.00;73659.16;4922037;28;102479;-73
2023/12/21 17:37:59;;;;;;;;;7.50;7.25;;;;;-143.90;100.00;73661.25;4919051;28;103704;-73
2023/12/21 17:40:25;;;;;;;;;5.25;2.50;;;;;-143.90;100.00;73659.16;4915746;28;102466;-73
2023/12/21 17:42:53;;;;;;;;;14.50;11.00;;;;;-143.90;100.00;73650.91;4918945;28;101980;-73
2023/12/21 17:45:20;;;;;;;;;9.25;7.50;;;;;-143.90;100.00;73644.69;4921627;28;102310;-73
2023/12/21 17:47:46;;;;;;;;;5.75;5.00;;;;;-143.90;100.00;73634.38;4917551;28;104375;-74
2023/12/21 17:50:15;;;;;;;;;6.00;4.25;;;;;-143.90;100.00;73632.31;4919241;28;103175;-72
2023/12/21 17:52:41;;;;;;;;;11.00;6.50;;;;;-143.90;100.00;73636.44;4912988;28;108343;-72
2023/12/21 17:55:09;;;;;;;;;6.75;6.00;;;;;-143.90;100.00;73613.72;4919736;28;102299;-71
2023/12/21 17:57:35;;;;;;;;;4.00;3.00;;;;;-143.90;100.00;73619.91;4922834;28;103992;-73
2023/12/21 18:00:04;;;;;;;;;1.50;1.00;;;;;-143.90;100.00;73613.72;4918257;28;102021;-71
2023/12/21 18:02:31;;;;;;;;;5.00;4.50;;;;;-143.90;100.00;73613.72;4910763;28;102260;-73
2023/12/21 18:04:58;;;;;;;;;4.25;3.25;;;;;-143.90;100.00;73605.44;4922707;28;102070;-73
2023/12/21 18:07:24;;;;;;;;;5.00;3.75;;;;;-143.90;100.00;73605.44;4920673;28;103821;-72
2023/12/21 18:09:53;;;;;;;;;4.25;3.00;;;;;-143.90;100.00;73603.38;4920706;28;102365;-71
2023/12/21 18:12:20;;;;;;;;;6.00;3.25;;;;;-143.90;100.00;73593.03;4912237;28;102296;-70
2023/12/21 18:14:46;;;;;;;;;3.00;3.00;;;;;-143.90;100.00;73588.91;4919252;28;102235;-71
2023/12/21 18:17:13;;;;;;;;;3.00;3.00;;;;;-143.90;100.00;73574.44;4919761;28;103907;-71
2023/12/21 18:19:40;;;;;;;;;2.75;2.75;;;;;-143.90;100.00;73566.16;4920680;28;102441;-72
2023/12/21 18:22:08;;;;;;;;;4.25;2.00;;;;;-143.90;100.00;73555.84;4920561;28;102621;-72
2023/12/21 18:24:37;;;;;;;;;3.50;2.00;;;;;-143.90;100.00;73543.44;4912692;28;102635;-73
2023/12/21 18:27:05;;;;;;;;;1.25;1.00;;;;;-143.90;100.00;73547.56;4919126;28;104842;-71
2023/12/21 18:29:31;;;;;;;;;2.75;2.75;;;;;-143.90;100.00;73539.31;4919064;28;103783;-73
2023/12/21 18:31:58;;;;;;;;;3.25;3.25;;;;;-143.90;100.00;73539.31;4885531;28;104038;-73
2023/12/21 18:34:27;;;;;;;;;6.25;4.25;;;;;-143.90;100.00;73531.03;4907350;28;102784;-71
2023/12/21 18:36:54;;;;;;;;;6.00;5.00;;;;;-143.90;100.00;73528.97;4922140;28;108788;-71
2023/12/21 18:39:22;;;;;;;;;11.25;9.75;;;;;-143.90;100.00;73528.97;4931349;28;102498;-73
2023/12/21 18:41:49;;;;;;;;;6.50;6.50;;;;;-143.90;100.00;73518.66;4914869;28;102204;-72
2023/12/21 18:44:16;;;;;;;;;37.25;32.00;;;;;-143.90;100.00;73510.38;4913447;28;102405;-72
2023/12/21 18:46:44;;;;;;;;;92.00;74.50;;;;;-143.90;100.00;73502.09;4902538;28;105022;-72
2023/12/21 18:49:11;;;;;;;;;178.50;146.25;;;;;-143.90;100.00;73506.25;4900043;28;102570;-71
2023/12/21 18:51:38;;;;;;;;;201.25;168.75;;;;;-143.90;100.00;73502.09;4897242;28;102275;-72
2023/12/21 18:54:06;;;;;;;;;166.00;127.25;;;;;-143.90;100.00;73502.09;4899161;28;102449;-72
2023/12/21 18:56:32;;;;;;;;;58.00;48.00;;;;;-143.90;100.00;73495.91;4894771;28;104153;-73
2023/12/21 18:58:59;;;;;;;;;25.25;22.75;;;;;-143.90;100.00;73495.91;4900465;28;102156;-72
2023/12/21 19:01:26;;;;;;;;;15.00;12.00;;;;;-143.90;100.00;73485.56;4903620;28;103689;-73
2023/12/21 19:03:53;;;;;;;;;11.50;8.50;;;;;-143.90;100.00;73481.44;4882055;28;103185;-73
2023/12/21 19:06:22;;;;;;;;;11.75;9.75;;;;;-143.90;100.00;73471.13;4889602;28;103993;-73
2023/12/21 19:08:49;;;;;;;;;2.75;2.75;;;;;-143.90;100.00;73452.50;4900286;28;102562;-73
2023/12/21 19:11:20;;;;;;;;;4.75;3.50;;;;;-143.90;100.00;73446.31;4902079;28;103993;-73
2023/12/21 19:13:48;;;;;;;;;6.25;4.75;;;;;-143.90;100.00;73444.25;4902458;28;105377;-71
2023/12/21 19:16:17;;;;;;;;;4.00;3.25;;;;;-143.90;100.00;73433.91;4884028;28;103892;-72
2023/12/21 19:18:47;;;;;;;;;4.50;3.75;;;;;-143.90;100.00;73425.66;4898135;28;103578;-71
2023/12/21 19:21:15;;;;;;;;;3.00;2.75;;;;;-143.90;100.00;73421.53;4905461;28;104326;-72
2023/12/21 19:23:43;;;;;;;;;2.67;2.67;;;;;-143.90;100.00;73419.44;4903068;28;102564;-71
2023/12/21 19:26:10;;;;;;;;;3.50;3.50;;;;;-143.90;100.00;73429.78;4901400;28;104391;-73
2023/12/21 19:28:37;;;;;;;;;7.75;4.00;;;;;-143.90;100.00;73415.31;4892222;28;104742;-72
2023/12/21 19:31:06;;;;;;;;;4.50;3.50;;;;;-143.90;100.00;73407.06;4904081;28;102581;-73
2023/12/21 19:33:34;;;;;;;;;0.00;0.00;;;;;-143.90;100.00;73407.06;4903138;28;102744;-73
2023/12/21 19:36:03;;;;;;;;;3.00;3.00;;;;;-143.90;100.00;73398.78;4898167;28;102571;-73
2023/12/21 19:38:30;;;;;;;;;7.75;3.00;;;;;-143.90;100.00;73394.66;4889119;28;102212;-73
2023/12/21 19:40:57;;;;;;;;;4.25;3.00;;;;;-143.90;100.00;73390.53;4900885;28;104325;-73
2023/12/21 19:43:24;;;;;;;;;7.50;4.50;;;;;-143.90;100.00;73382.25;4902534;28;102622;-74
2023/12/21 19:45:50;;;;;;;;;3.00;2.00;;;;;-143.90;100.00;73378.13;4898647;28;104001;-72
2023/12/21 19:48:18;;;;;;;;;3.00;2.00;;;;;-143.90;100.00;73369.84;4892290;28;102386;-70
2023/12/21 19:50:49;;;;;;;;;2.00;2.00;;;;;-143.90;100.00;73365.72;4899988;28;102395;-72
2023/12/21 19:53:16;;;;;;;;;3.50;3.00;;;;;-143.90;100.00;73376.06;4899058;28;102380;-71
2023/12/21 19:55:43;;;;;;;;;4.00;3.00;;;;;-143.90;100.00;73367.78;4896504;28;104360;-71